KABI/ABI METAR and TAF weather

Enter ICAO airport designator
Station Type Date Time Source
KABI METAR 2019/10/21 02:52 UTC NOAA

KABI 210252Z 23007KT 10SM SCT110 27/08 A2965 RMK AO2 LTG DSNT NE SLP015 T02670078 53016


Station Type Date Time Source
KABI Decoded METAR 2019/10/21 02:52 UTC NOAA

ABILENE REGIONAL AIRPORT, TX, United States (KABI) 32-25N 099-41W 548M
Oct 20, 2019 - 10:52 PM EDT / 2019.10.21 0252 UTC
Wind: from the SW (230 degrees) at 8 MPH (7 KT):0
Visibility: 10 mile(s):0
Sky conditions: partly cloudy
Weather: Lightning observed
Temperature: 80.1 F (26.7 C)
Dew Point: 46.0 F (7.8 C)
Relative Humidity: 30%
Pressure (altimeter): 29.65 in. Hg (1004 hPa)
Pressure tendency: 0.05 inches (1.6 hPa) higher than three hours ago
ob: KABI 210252Z 23007KT 10SM SCT110 27/08 A2965 RMK AO2 LTG DSNT NE SLP015 T02670078 53016
cycle: 3

Station Type Date Time Source
KABI TAF 2019/10/21 02:12 UTC NOAA

TAF
AMD KABI 210211Z 2102/2124 22011KT P6SM FEW120
FM210300 27011KT P6SM VCTS SCT050CB BKN100
FM210500 33011KT P6SM FEW250

Example: see airport list